createdAt,value
2022-09-02T00:01:02.369Z,46.94
2022-09-02T00:03:31.434Z,46.58
2022-09-02T00:05:58.499Z,46.31
2022-09-02T00:08:25.566Z,47.37
2022-09-02T00:10:52.304Z,47.32
2022-09-02T00:13:22.840Z,48.01
2022-09-02T00:15:49.511Z,47.96
2022-09-02T00:18:18.212Z,52.86
2022-09-02T00:20:47.995Z,47.93
2022-09-02T00:23:16.651Z,47.87
2022-09-02T00:25:45.175Z,49.83
2022-09-02T00:28:15.013Z,47.85
2022-09-02T00:30:42.298Z,48.81
2022-09-02T00:33:09.698Z,48.37
2022-09-02T00:35:36.773Z,47.93
2022-09-02T00:38:06.592Z,47.22
2022-09-02T00:40:34.461Z,47.84
2022-09-02T00:43:01.705Z,49.91
2022-09-02T00:45:29.004Z,47.35
2022-09-02T00:47:55.613Z,48.17
2022-09-02T00:50:26.918Z,49.42
2022-09-02T00:52:58.288Z,49.64
2022-09-02T00:55:29.775Z,48.26
2022-09-02T00:58:00.917Z,48.16
2022-09-02T01:00:34.797Z,52.98
2022-09-02T01:03:07.037Z,49.62
2022-09-02T01:05:43.643Z,47.78
2022-09-02T01:08:11.697Z,47.99
2022-09-02T01:10:40.335Z,51.83
2022-09-02T01:13:11.936Z,53.46
2022-09-02T01:15:44.022Z,49.56
2022-09-02T01:18:15.132Z,51.73
2022-09-02T01:20:42.567Z,48.73
2022-09-02T01:23:09.290Z,48.62
2022-09-02T01:25:37.397Z,48.67
2022-09-02T01:28:10.395Z,49.63
2022-09-02T01:30:41.391Z,48.30
2022-09-02T01:33:08.689Z,47.45
2022-09-02T01:35:35.810Z,48.44
2022-09-02T01:38:03.969Z,48.18
2022-09-02T01:40:31.741Z,50.38
2022-09-02T01:43:07.799Z,52.52
2022-09-02T01:45:36.793Z,54.83
2022-09-02T01:48:06.435Z,49.19
2022-09-02T01:50:35.797Z,49.30
2022-09-02T01:53:03.857Z,48.77
2022-09-02T01:55:33.218Z,52.30
2022-09-02T01:58:00.559Z,50.13
2022-09-02T02:00:28.052Z,53.13
2022-09-02T02:02:55.250Z,50.71
2022-09-02T02:05:22.644Z,50.25
2022-09-02T02:07:49.768Z,50.29
2022-09-02T02:10:19.204Z,51.31
2022-09-02T02:12:45.826Z,51.91
2022-09-02T02:15:15.877Z,49.80
2022-09-02T02:17:43.872Z,50.60
2022-09-02T02:20:12.877Z,55.07
2022-09-02T02:22:39.648Z,50.92
2022-09-02T02:25:07.148Z,55.52
2022-09-02T02:27:33.786Z,53.85
2022-09-02T02:30:00.995Z,52.08
2022-09-02T02:32:27.669Z,50.87
2022-09-02T02:34:54.501Z,53.14
2022-09-02T02:37:25.489Z,50.51
2022-09-02T02:39:52.695Z,50.89
2022-09-02T02:42:19.469Z,51.03
2022-09-02T02:44:45.991Z,49.17
2022-09-02T02:47:12.731Z,50.57
2022-09-02T02:49:41.386Z,50.00
2022-09-02T02:52:09.416Z,53.34
2022-09-02T02:54:36.601Z,51.33
2022-09-02T02:57:05.233Z,56.41
2022-09-02T02:59:32.069Z,58.27
2022-09-02T03:01:59.160Z,52.26
2022-09-02T03:04:25.884Z,51.13
2022-09-02T03:06:52.498Z,50.55
2022-09-02T03:09:20.480Z,51.39
2022-09-02T03:11:48.269Z,54.22
2022-09-02T03:14:15.303Z,51.55
2022-09-02T03:16:43.399Z,54.25
2022-09-02T03:19:10.025Z,54.66
2022-09-02T03:21:39.180Z,54.01
2022-09-02T03:24:06.712Z,50.94
2022-09-02T03:26:33.363Z,51.66
2022-09-02T03:28:59.980Z,54.05
2022-09-02T03:31:27.410Z,52.67
2022-09-02T03:33:55.217Z,56.90
2022-09-02T03:36:26.586Z,51.77
2022-09-02T03:38:53.645Z,50.22
2022-09-02T03:41:21.014Z,53.23
2022-09-02T03:43:47.883Z,59.17
2022-09-02T03:46:15.081Z,54.79
2022-09-02T03:48:42.294Z,51.13
2022-09-02T03:51:09.051Z,52.13
2022-09-02T03:53:36.049Z,55.43
2022-09-02T03:56:07.997Z,56.95
2022-09-02T03:58:36.314Z,50.63
2022-09-02T04:01:03.675Z,52.99
2022-09-02T04:03:30.771Z,54.46
2022-09-02T04:05:58.189Z,54.77
2022-09-02T04:08:25.379Z,52.83
2022-09-02T04:10:52.301Z,57.71
2022-09-02T04:13:19.759Z,52.80
2022-09-02T04:15:49.039Z,56.07
2022-09-02T04:18:17.464Z,54.76
2022-09-02T04:20:44.936Z,53.38
2022-09-02T04:23:11.890Z,58.64
2022-09-02T04:25:41.188Z,53.13
2022-09-02T04:28:07.848Z,52.44
2022-09-02T04:30:34.598Z,54.92
2022-09-02T04:33:01.194Z,55.33
2022-09-02T04:35:27.756Z,52.88
2022-09-02T04:37:54.390Z,57.91
2022-09-02T04:40:20.997Z,52.79
2022-09-02T04:42:47.630Z,54.02
2022-09-02T04:45:14.669Z,53.86
2022-09-02T04:47:41.196Z,52.50
2022-09-02T04:50:08.059Z,52.16
2022-09-02T04:52:34.748Z,52.89
2022-09-02T04:55:02.506Z,56.82
2022-09-02T04:57:29.243Z,54.44
2022-09-02T04:59:55.842Z,53.31
2022-09-02T05:02:22.955Z,59.56
2022-09-02T05:04:49.964Z,52.89
2022-09-02T05:07:16.555Z,53.74
2022-09-02T05:09:43.168Z,52.48
2022-09-02T05:12:10.698Z,54.22
2022-09-02T05:14:38.075Z,58.97
2022-09-02T05:17:07.625Z,55.71
2022-09-02T05:19:34.815Z,53.41
2022-09-02T05:22:01.893Z,56.18
2022-09-02T05:24:29.625Z,57.22
2022-09-02T05:26:56.397Z,55.94
2022-09-02T05:29:23.879Z,53.89
2022-09-02T05:31:50.692Z,56.55
2022-09-02T05:34:18.046Z,53.80
2022-09-02T05:36:44.982Z,54.07
2022-09-02T05:39:11.624Z,53.51
2022-09-02T05:41:38.636Z,52.61
2022-09-02T05:44:06.573Z,52.15
2022-09-02T05:46:35.465Z,54.59
2022-09-02T05:49:07.051Z,50.88
2022-09-02T05:51:41.594Z,50.29
2022-09-02T05:54:11.414Z,49.67
2022-09-02T05:56:41.101Z,48.97
2022-09-02T05:59:12.884Z,48.85
2022-09-02T06:01:42.585Z,48.88
2022-09-02T06:04:09.317Z,49.21
2022-09-02T06:06:38.759Z,49.47
2022-09-02T06:09:11.513Z,48.55
2022-09-02T06:11:44.656Z,49.62
2022-09-02T06:14:14.237Z,49.74
2022-09-02T06:16:42.101Z,49.23
2022-09-02T06:19:09.169Z,50.50
2022-09-02T06:21:37.789Z,49.97
2022-09-02T06:24:08.760Z,50.55
2022-09-02T06:26:36.217Z,50.16
2022-09-02T06:29:04.102Z,50.47
2022-09-02T06:31:34.613Z,50.88
2022-09-02T06:34:03.431Z,47.30
2022-09-02T06:36:31.363Z,47.85
2022-09-02T06:38:59.596Z,51.52
2022-09-02T06:41:29.462Z,51.59
2022-09-02T06:43:58.114Z,51.68
2022-09-02T06:46:31.168Z,51.55
2022-09-02T06:48:58.073Z,52.44
2022-09-02T06:51:30.687Z,46.02
2022-09-02T06:53:57.628Z,51.36
2022-09-02T06:56:26.892Z,50.52
2022-09-02T06:58:53.854Z,52.32
2022-09-02T07:01:26.818Z,50.92
2022-09-02T07:04:12.505Z,52.13
2022-09-02T07:06:42.661Z,52.55
2022-09-02T07:09:11.812Z,51.89
2022-09-02T07:11:39.354Z,53.01
2022-09-02T07:14:06.691Z,52.08
2022-09-02T07:16:38.611Z,47.39
2022-09-02T07:19:09.906Z,50.19
2022-09-02T07:21:41.096Z,50.55
2022-09-02T07:24:10.422Z,51.08
2022-09-02T07:26:37.539Z,50.59
2022-09-02T07:29:08.890Z,50.84
2022-09-02T07:31:37.056Z,48.03
2022-09-02T07:34:06.033Z,51.31
2022-09-02T07:36:37.511Z,51.28
2022-09-02T07:39:06.658Z,50.64
2022-09-02T07:41:35.968Z,46.74
2022-09-02T07:44:04.738Z,48.17
2022-09-02T07:46:32.309Z,49.26
2022-09-02T07:49:01.447Z,47.42
2022-09-02T07:51:30.913Z,47.12
2022-09-02T07:53:57.996Z,48.79
2022-09-02T07:56:24.657Z,47.61
2022-09-02T07:58:51.289Z,47.39
2022-09-02T08:01:23.133Z,47.68
2022-09-02T08:03:50.431Z,46.05
2022-09-02T08:06:17.363Z,46.62
2022-09-02T08:08:56.530Z,45.83
2022-09-02T08:11:23.840Z,45.79
2022-09-02T08:13:51.166Z,45.00
2022-09-02T08:16:18.171Z,45.63
2022-09-02T08:18:44.805Z,45.54
2022-09-02T08:21:11.379Z,45.61
2022-09-02T08:23:38.130Z,45.37
2022-09-02T08:26:06.453Z,45.01
2022-09-02T08:28:33.578Z,44.86
2022-09-02T08:31:04.723Z,44.35
2022-09-02T08:33:31.223Z,44.85
2022-09-02T08:36:02.710Z,45.12
2022-09-02T08:38:29.245Z,44.70
2022-09-02T08:40:55.879Z,43.86
2022-09-02T08:43:40.112Z,44.18
2022-09-02T08:46:11.264Z,45.05
2022-09-02T08:48:54.099Z,44.30
2022-09-02T08:51:32.116Z,44.25
2022-09-02T08:54:31.641Z,43.31
2022-09-02T08:56:59.023Z,44.14
2022-09-02T08:59:27.921Z,43.66
2022-09-02T09:02:05.408Z,43.21
2022-09-02T09:04:40.701Z,43.72
2022-09-02T09:07:26.125Z,42.77
2022-09-02T09:10:11.315Z,43.94
2022-09-02T09:12:47.926Z,43.34
2022-09-02T09:15:17.309Z,42.92
2022-09-02T09:17:56.736Z,42.31
2022-09-02T09:20:27.488Z,43.05
2022-09-02T09:22:59.913Z,42.80
2022-09-02T09:25:30.244Z,43.76
2022-09-02T09:28:01.670Z,42.70
2022-09-02T09:30:29.527Z,42.46
2022-09-02T09:33:00.238Z,41.76
2022-09-02T09:35:34.448Z,43.39
2022-09-02T09:38:13.183Z,41.86
2022-09-02T09:40:39.791Z,42.96
2022-09-02T09:43:07.923Z,42.47
2022-09-02T09:48:30.820Z,42.50
2022-09-02T09:50:57.306Z,42.14
2022-09-02T09:53:29.373Z,41.70
2022-09-02T09:56:06.647Z,39.07
2022-09-02T09:58:47.587Z,40.73
2022-09-02T10:01:32.361Z,41.03
2022-09-02T10:04:04.972Z,41.72
2022-09-02T10:06:33.371Z,41.74
2022-09-02T10:09:06.011Z,40.13
2022-09-02T10:11:37.775Z,39.26
2022-09-02T10:14:10.575Z,40.87
2022-09-02T10:17:01.636Z,38.91
2022-09-02T10:19:40.615Z,38.44
2022-09-02T10:22:58.855Z,38.48
2022-09-02T10:25:43.329Z,37.78
2022-09-02T10:28:47.642Z,37.53
2022-09-02T10:31:59.127Z,37.54
2022-09-02T10:34:42.533Z,39.25
2022-09-02T10:37:41.498Z,39.67
2022-09-02T10:40:16.033Z,39.44
2022-09-02T10:43:00.694Z,39.58
2022-09-02T10:45:37.948Z,40.27
2022-09-02T10:48:42.184Z,37.75
2022-09-02T10:51:24.936Z,39.99
2022-09-02T10:54:10.962Z,40.31
2022-09-02T10:56:47.419Z,39.67
2022-09-02T10:59:25.285Z,39.25
2022-09-02T11:02:19.192Z,36.87
2022-09-02T11:04:56.668Z,40.29
2022-09-02T11:07:28.961Z,37.17
2022-09-02T11:10:03.766Z,38.61
2022-09-02T11:12:39.230Z,37.01
2022-09-02T11:15:22.011Z,36.41
2022-09-02T11:17:54.843Z,39.83
2022-09-02T11:20:41.677Z,35.63
2022-09-02T11:23:08.122Z,38.46
2022-09-02T11:25:49.468Z,36.21
2022-09-02T11:28:49.298Z,37.83
2022-09-02T11:31:24.664Z,34.96
2022-09-02T11:34:12.145Z,37.85
2022-09-02T11:36:40.670Z,35.63
2022-09-02T11:39:51.481Z,34.51
2022-09-02T11:42:31.182Z,36.75
2022-09-02T11:45:22.956Z,34.06
2022-09-02T11:47:55.259Z,38.36
2022-09-02T11:50:39.596Z,35.31
2022-09-02T11:53:21.870Z,35.65
2022-09-02T11:56:15.924Z,35.14
2022-09-02T11:58:45.504Z,37.88
2022-09-02T12:01:14.872Z,36.07
2022-09-02T12:04:39.778Z,37.80
2022-09-02T12:06:38.514Z,37.52
2022-09-02T12:09:08.462Z,37.79
2022-09-02T12:11:42.884Z,34.10
2022-09-02T12:14:25.965Z,36.63
2022-09-02T12:17:03.721Z,34.03
2022-09-02T12:19:44.810Z,35.72
2022-09-02T12:22:17.312Z,33.26
2022-09-02T12:25:03.403Z,34.10
2022-09-02T12:27:37.397Z,35.85
2022-09-02T12:30:11.634Z,34.87
2022-09-02T12:32:50.006Z,34.20
2022-09-02T12:35:50.275Z,36.40
2022-09-02T12:38:29.044Z,35.41
2022-09-02T12:41:05.827Z,34.00
2022-09-02T12:43:52.632Z,33.91
2022-09-02T12:46:34.071Z,33.83
2022-09-02T12:49:22.703Z,34.07
2022-09-02T12:51:55.246Z,36.55
2022-09-02T12:54:42.173Z,32.99
2022-09-02T12:57:10.243Z,36.44
2022-09-02T12:59:41.805Z,33.86
2022-09-02T13:02:26.763Z,36.31
2022-09-02T13:05:07.150Z,29.93
2022-09-02T13:08:17.713Z,31.26
2022-09-02T13:10:50.542Z,34.73
2022-09-02T13:14:01.602Z,31.19
2022-09-02T13:16:51.118Z,38.18
2022-09-02T13:19:54.997Z,33.55
2022-09-02T13:22:31.119Z,37.02
2022-09-02T13:25:20.964Z,34.10
2022-09-02T13:28:31.306Z,34.07
2022-09-02T13:31:24.779Z,33.83
2022-09-02T13:34:05.623Z,37.65
2022-09-02T13:36:45.477Z,37.31
2022-09-02T13:39:19.210Z,35.94
2022-09-02T13:41:46.889Z,37.56
2022-09-02T13:44:24.104Z,35.39
2022-09-02T13:47:05.347Z,36.89
2022-09-02T13:49:37.755Z,35.65
2022-09-02T13:52:07.929Z,37.09
2022-09-02T13:54:43.570Z,34.80
2022-09-02T13:57:13.094Z,37.11
2022-09-02T13:59:51.126Z,34.77
2022-09-02T14:02:26.870Z,34.84
2022-09-02T14:04:58.865Z,36.49
2022-09-02T14:07:37.288Z,35.26
2022-09-02T14:10:08.647Z,37.85
2022-09-02T14:12:37.737Z,35.57
2022-09-02T14:15:06.802Z,37.62
2022-09-02T14:17:35.715Z,37.74
2022-09-02T14:20:23.447Z,35.29
2022-09-02T14:22:58.741Z,36.12
2022-09-02T14:25:28.457Z,37.84
2022-09-02T14:27:57.574Z,37.93
2022-09-02T14:30:39.355Z,35.50
2022-09-02T14:33:26.175Z,35.86
2022-09-02T14:36:00.421Z,36.85
2022-09-02T14:38:30.928Z,36.95
2022-09-02T14:41:05.904Z,37.58
2022-09-02T14:43:43.529Z,35.81
2022-09-02T14:46:28.315Z,35.93
2022-09-02T14:48:59.968Z,37.21
2022-09-02T14:51:34.573Z,35.34
2022-09-02T14:54:01.165Z,34.63
2022-09-02T14:57:03.591Z,32.79
2022-09-02T14:59:30.822Z,37.05
2022-09-02T15:01:58.972Z,37.62
2022-09-02T15:04:25.959Z,35.71
2022-09-02T15:06:52.570Z,37.73
2022-09-02T15:09:19.651Z,36.91
2022-09-02T15:11:58.546Z,35.88
2022-09-02T15:14:27.722Z,37.34
2022-09-02T15:16:55.233Z,36.67
2022-09-02T15:19:21.843Z,37.60
2022-09-02T15:21:48.441Z,37.81
2022-09-02T15:24:15.639Z,36.01
2022-09-02T15:26:42.293Z,37.22
2022-09-02T15:29:08.844Z,37.15
2022-09-02T15:31:36.511Z,36.83
2022-09-02T15:34:03.252Z,36.84
2022-09-02T15:36:31.474Z,36.81
2022-09-02T15:38:58.044Z,37.11
2022-09-02T15:41:27.368Z,33.49
2022-09-02T15:43:54.136Z,35.67
2022-09-02T15:46:22.396Z,36.87
2022-09-02T15:48:50.164Z,36.50
2022-09-02T15:51:20.179Z,35.13
2022-09-02T15:53:49.197Z,35.62
2022-09-02T15:56:21.134Z,34.41
2022-09-02T15:58:48.144Z,36.62
2022-09-02T16:01:15.001Z,35.69
2022-09-02T16:03:41.735Z,34.76
2022-09-02T16:06:11.170Z,36.52
2022-09-02T16:08:38.819Z,36.69
2022-09-02T16:11:09.508Z,36.14
2022-09-02T16:13:37.684Z,36.73
2022-09-02T16:16:07.194Z,34.29
2022-09-02T16:18:35.412Z,35.72
2022-09-02T16:21:02.445Z,37.08
2022-09-02T16:23:29.052Z,37.26
2022-09-02T16:26:34.079Z,37.11
2022-09-02T16:29:04.010Z,37.13
2022-09-02T16:31:32.686Z,36.96
2022-09-02T16:34:26.769Z,36.96
2022-09-02T16:36:53.329Z,37.45
2022-09-02T16:39:21.098Z,37.37
2022-09-02T16:41:50.229Z,36.80
2022-09-02T16:44:22.051Z,37.20
2022-09-02T16:46:50.495Z,37.06
2022-09-02T16:49:20.112Z,37.07
2022-09-02T16:51:48.413Z,37.58
2022-09-02T16:54:17.379Z,37.39
2022-09-02T16:56:48.049Z,37.50
2022-09-02T16:59:14.764Z,37.48
2022-09-02T17:01:41.787Z,36.28
2022-09-02T17:04:09.001Z,36.66
2022-09-02T17:06:41.275Z,36.90
2022-09-02T17:09:09.281Z,36.80
2022-09-02T17:11:39.541Z,36.80
2022-09-02T17:14:09.508Z,35.26
2022-09-02T17:16:38.817Z,36.81
2022-09-02T17:19:07.506Z,37.07
2022-09-02T17:21:46.986Z,34.90
2022-09-02T17:24:15.624Z,35.25
2022-09-02T17:26:46.820Z,36.41
2022-09-02T17:29:47.133Z,35.85
2022-09-02T17:32:06.091Z,35.88
2022-09-02T17:34:33.788Z,35.19
2022-09-02T17:37:02.870Z,36.16
2022-09-02T17:39:30.549Z,36.65
2022-09-02T17:41:58.511Z,36.90
2022-09-02T17:44:36.487Z,36.85
2022-09-02T17:47:12.040Z,35.35
2022-09-02T17:49:42.309Z,36.44
2022-09-02T17:52:10.154Z,36.95
2022-09-02T17:54:39.326Z,37.04
2022-09-02T17:57:28.344Z,37.06
2022-09-02T18:00:19.213Z,36.86
2022-09-02T18:02:57.898Z,36.80
2022-09-02T18:05:36.733Z,36.93
2022-09-02T18:08:25.694Z,37.41
2022-09-02T18:10:58.085Z,36.83
2022-09-02T18:13:54.421Z,37.05
2022-09-02T18:16:36.613Z,37.36
2022-09-02T18:19:16.323Z,37.27
2022-09-02T18:21:52.093Z,37.52
2022-09-02T18:24:33.600Z,37.38
2022-09-02T18:27:41.950Z,37.01
2022-09-02T18:30:12.582Z,37.65
2022-09-02T18:33:02.868Z,37.30
2022-09-02T18:35:50.973Z,37.82
2022-09-02T18:38:52.793Z,37.63
2022-09-02T18:41:55.175Z,37.69
2022-09-02T18:45:03.311Z,37.69
2022-09-02T18:47:54.341Z,38.19
2022-09-02T18:53:21.387Z,38.46
2022-09-02T18:55:48.774Z,38.55
2022-09-02T18:58:34.291Z,38.26
2022-09-02T19:01:43.836Z,38.22
2022-09-02T19:04:11.061Z,38.34
2022-09-02T19:06:37.742Z,38.47
2022-09-02T19:09:13.317Z,38.60
2022-09-02T19:11:40.175Z,38.86
2022-09-02T19:14:26.466Z,38.79
2022-09-02T19:16:54.349Z,38.52
2022-09-02T19:19:21.261Z,39.69
2022-09-02T19:21:52.474Z,39.12
2022-09-02T19:24:32.531Z,39.50
2022-09-02T19:27:07.278Z,39.71
2022-09-02T19:29:37.354Z,39.00
2022-09-02T19:32:05.239Z,39.04
2022-09-02T19:34:37.260Z,39.00
2022-09-02T19:37:07.209Z,39.09
2022-09-02T19:39:34.044Z,39.25
2022-09-02T19:42:01.528Z,39.49
2022-09-02T19:44:28.624Z,39.19
2022-09-02T19:47:42.144Z,39.42
2022-09-02T19:49:42.668Z,39.57
2022-09-02T19:52:11.277Z,39.69
2022-09-02T19:54:41.058Z,39.23
2022-09-02T19:57:07.802Z,39.95
2022-09-02T19:59:34.442Z,39.73
2022-09-02T20:02:03.345Z,39.59
2022-09-02T20:04:31.287Z,40.11
2022-09-02T20:07:00.439Z,39.67
2022-09-02T20:09:29.308Z,41.30
2022-09-02T20:11:56.340Z,39.56
2022-09-02T20:14:23.277Z,40.08
2022-09-02T20:16:57.362Z,40.25
2022-09-02T20:19:24.068Z,39.73
2022-09-02T20:21:53.279Z,41.24
2022-09-02T20:24:25.666Z,40.40
2022-09-02T20:26:56.478Z,39.91
2022-09-02T20:29:36.880Z,40.04
2022-09-02T20:32:31.044Z,41.23
2022-09-02T20:35:22.390Z,40.57
2022-09-02T20:38:20.500Z,42.18
2022-09-02T20:41:16.130Z,42.01
2022-09-02T20:43:46.571Z,40.85
2022-09-02T20:46:28.254Z,40.75
2022-09-02T20:49:22.569Z,42.00
2022-09-02T20:51:59.412Z,40.42
2022-09-02T20:54:58.343Z,41.72
2022-09-02T20:57:30.954Z,40.43
2022-09-02T21:00:04.478Z,42.24
2022-09-02T21:02:57.929Z,41.98
2022-09-02T21:05:42.223Z,42.99
2022-09-02T21:08:24.638Z,43.60
2022-09-02T21:11:00.663Z,41.98
2022-09-02T21:13:54.263Z,42.09
2022-09-02T21:16:28.399Z,40.84
2022-09-02T21:19:30.531Z,44.81
2022-09-02T21:22:12.171Z,42.67
2022-09-02T21:24:53.982Z,41.82
2022-09-02T21:27:31.816Z,40.81
2022-09-02T21:30:07.531Z,42.51
2022-09-02T21:32:54.170Z,41.23
2022-09-02T21:35:47.278Z,42.42
2022-09-02T21:38:36.001Z,41.36
2022-09-02T21:41:20.436Z,45.38
2022-09-02T21:44:22.248Z,44.92
2022-09-02T21:47:01.796Z,43.22
2022-09-02T21:49:41.492Z,44.35
2022-09-02T21:52:27.146Z,45.21
2022-09-02T21:55:25.395Z,43.47
2022-09-02T21:58:07.216Z,43.03
2022-09-02T22:00:34.663Z,42.27
2022-09-02T22:03:30.246Z,44.52
2022-09-02T22:06:10.322Z,44.04
2022-09-02T22:08:48.480Z,44.14
2022-09-02T22:11:26.696Z,45.43
2022-09-02T22:13:58.322Z,43.83
2022-09-02T22:16:37.545Z,45.25
2022-09-02T22:19:06.306Z,43.45
2022-09-02T22:21:50.430Z,45.95
2022-09-02T22:24:28.600Z,42.94
2022-09-02T22:27:08.848Z,45.90
2022-09-02T22:29:44.111Z,44.14
2022-09-02T22:32:14.472Z,43.33
2022-09-02T22:34:49.711Z,44.14
2022-09-02T22:37:24.366Z,43.74
2022-09-02T22:39:53.083Z,42.58
2022-09-02T22:42:36.591Z,44.69
2022-09-02T22:45:43.053Z,45.43
2022-09-02T22:48:34.741Z,44.25
2022-09-02T22:51:25.465Z,43.00
2022-09-02T22:53:52.151Z,42.77
2022-09-02T22:56:39.784Z,44.42
2022-09-02T22:59:35.811Z,44.96
2022-09-02T23:02:11.538Z,45.28
2022-09-02T23:04:51.507Z,45.84
2022-09-02T23:07:18.092Z,42.25
2022-09-02T23:09:53.805Z,42.98
2022-09-02T23:12:50.958Z,43.94
2022-09-02T23:15:27.286Z,42.33
2022-09-02T23:18:24.367Z,44.61
2022-09-02T23:21:07.391Z,47.79
2022-09-02T23:24:01.980Z,48.07
2022-09-02T23:26:31.907Z,43.90
2022-09-02T23:29:19.812Z,46.57
2022-09-02T23:32:26.075Z,46.79
2022-09-02T23:35:19.214Z,45.02
2022-09-02T23:37:45.700Z,48.91
2022-09-02T23:40:21.349Z,44.23
2022-09-02T23:42:49.697Z,44.78
2022-09-02T23:45:25.855Z,47.20
2022-09-02T23:48:07.499Z,45.87
2022-09-02T23:50:37.759Z,44.50
2022-09-02T23:53:13.901Z,44.81
2022-09-02T23:55:52.397Z,44.04
2022-09-02T23:58:41.463Z,44.00
